TNCA/AUA METAR and TAF weather

Enter ICAO airport designator
Station Type Date Time Source
TNCA METAR 2020/01/24 03:00 UTC NOAA

TNCA 240300Z 08005KT 9999 FEW018 26/23 Q1012 NOSIG


Station Type Date Time Source
TNCA Decoded METAR 2020/01/24 03:00 UTC NOAA

Queen Beatrix Airport, Aruba (TNCA) 12-30N 070-01W 33M
Jan 23, 2020 - 10:00 PM EST / 2020.01.24 0300 UTC
Wind: from the E (080 degrees) at 6 MPH (5 KT):0
Visibility: greater than 7 mile(s):0
Sky conditions: mostly clear
Temperature: 78 F (26 C)
Dew Point: 73 F (23 C)
Relative Humidity: 83%
Pressure (altimeter): 29.88 in. Hg (1012 hPa)
ob: TNCA 240300Z 08005KT 9999 FEW018 26/23 Q1012 NOSIG
cycle: 3

Station Type Date Time Source
TNCA TAF 2020/01/24 00:25 UTC NOAA

TAF TNCA 232315Z 2400/2424 08009KT 9999 SCT020
TEMPO 2406/2424 VRB03KT

Example: see airport list